createdAt,value
2018-04-18T00:01:42.646Z,102156.84
2018-04-18T00:04:13.406Z,102151.97
2018-04-18T00:06:45.483Z,102155.61
2018-04-18T00:09:18.319Z,102143.06
2018-04-18T00:11:50.323Z,102140.14
2018-04-18T00:14:22.283Z,102140.33
2018-04-18T00:16:55.610Z,102132.55
2018-04-18T00:19:29.279Z,102129.23
2018-04-18T00:22:01.313Z,102127.04
2018-04-18T00:26:38.615Z,102122.25
2018-04-18T00:29:09.496Z,102125.47
2018-04-18T00:31:41.411Z,102114.02
2018-04-18T00:36:44.210Z,102118.81
2018-04-18T00:41:07.515Z,102116.11
2018-04-18T00:43:39.286Z,102111.91
2018-04-18T00:46:11.174Z,102106.33
2018-04-18T00:48:43.231Z,102105.64
2018-04-18T00:51:15.576Z,102103.12
2018-04-18T00:53:46.064Z,102104.83
2018-04-18T00:58:30.404Z,102112.27
2018-04-18T01:02:35.213Z,102108.47
2018-04-18T01:05:08.487Z,102117.92
2018-04-18T01:07:40.275Z,102113.54
2018-04-18T01:10:14.243Z,102112.35
2018-04-18T01:12:46.411Z,102110.11
2018-04-18T01:15:18.460Z,102114.87
2018-04-18T01:17:50.238Z,102113.56
2018-04-18T01:20:22.239Z,102105.76
2018-04-18T01:22:54.229Z,102107.00
2018-04-18T01:25:27.214Z,102104.37
2018-04-18T01:27:59.219Z,102104.11
2018-04-18T01:30:32.269Z,102100.58
2018-04-18T01:33:05.574Z,102097.44
2018-04-18T01:35:37.618Z,102090.32
2018-04-18T01:39:26.444Z,102091.37
2018-04-18T01:42:00.094Z,102098.37
2018-04-18T01:44:32.231Z,102091.92
2018-04-18T01:47:04.243Z,102092.33
2018-04-18T01:49:36.254Z,102088.72
2018-04-18T01:52:08.375Z,102089.59
2018-04-18T01:54:40.423Z,102089.66
2018-04-18T01:57:12.500Z,102089.20
2018-04-18T01:59:44.274Z,102086.12
2018-04-18T02:02:17.256Z,102086.63
2018-04-18T02:04:51.094Z,102085.14
2018-04-18T02:07:23.443Z,102087.35
2018-04-18T02:09:55.442Z,102089.67
2018-04-18T02:12:27.569Z,102088.68
2018-04-18T02:14:59.476Z,102084.09
2018-04-18T02:17:31.492Z,102078.17
2018-04-18T02:20:04.286Z,102072.72
2018-04-18T02:22:36.493Z,102071.44
2018-04-18T02:25:08.295Z,102072.06
2018-04-18T02:27:41.295Z,102070.64
2018-04-18T02:30:14.534Z,102056.33
2018-04-18T02:32:46.522Z,102060.02
2018-04-18T02:35:19.571Z,102066.36
2018-04-18T02:37:51.119Z,102062.69
2018-04-18T02:41:52.079Z,102068.16
2018-04-18T02:44:24.762Z,102066.84
2018-04-18T02:46:57.640Z,102061.27
2018-04-18T02:49:30.486Z,102056.94
2018-04-18T02:52:02.566Z,102057.65
2018-04-18T02:54:35.717Z,102055.59
2018-04-18T02:57:07.642Z,102048.31
2018-04-18T02:59:40.497Z,102047.52
2018-04-18T03:02:12.563Z,102051.93
2018-04-18T03:07:29.487Z,102061.45
2018-04-18T03:10:01.487Z,102060.30
2018-04-18T03:12:33.643Z,102059.24
2018-04-18T03:15:05.503Z,102060.93
2018-04-18T03:18:17.480Z,102064.22
2018-04-18T03:20:49.484Z,102060.04
2018-04-18T03:23:21.314Z,102058.46
2018-04-18T03:27:54.558Z,102063.42
2018-04-18T03:30:25.468Z,102061.01
2018-04-18T03:32:57.473Z,102062.39
2018-04-18T03:35:29.278Z,102071.83
2018-04-18T03:38:01.121Z,102072.98
2018-04-18T03:40:33.239Z,102075.06
2018-04-18T03:43:05.484Z,102078.09
2018-04-18T03:45:37.555Z,102078.27
2018-04-18T03:48:08.474Z,102081.66
2018-04-18T03:50:40.563Z,102082.45
2018-04-18T03:53:11.104Z,102087.64
2018-04-18T03:55:43.448Z,102087.56
2018-04-18T03:58:15.309Z,102089.02
2018-04-18T04:00:47.257Z,102091.11
2018-04-18T04:03:19.263Z,102098.62
2018-04-18T04:05:51.607Z,102093.81
2018-04-18T04:08:22.226Z,102099.52
2018-04-18T04:10:54.561Z,102103.63
2018-04-18T04:13:25.094Z,102105.80
2018-04-18T04:18:45.721Z,102109.33
2018-04-18T04:21:57.263Z,102102.72
2018-04-18T04:24:46.637Z,102106.39
2018-04-18T04:27:18.571Z,102099.59
2018-04-18T04:29:50.501Z,102098.58
2018-04-18T04:32:22.501Z,102099.12
2018-04-18T04:34:54.289Z,102098.02
2018-04-18T04:37:26.282Z,102103.27
2018-04-18T04:39:58.270Z,102100.97
2018-04-18T04:42:30.281Z,102094.22
2018-04-18T04:45:03.296Z,102096.66
2018-04-18T04:47:35.507Z,102098.25
2018-04-18T04:50:07.519Z,102102.04
2018-04-18T04:52:39.644Z,102105.34
2018-04-18T04:55:10.358Z,102106.36
2018-04-18T04:57:42.313Z,102109.92
2018-04-18T05:00:14.547Z,102104.52
2018-04-18T05:02:46.510Z,102108.39
2018-04-18T05:05:18.506Z,102100.07
2018-04-18T05:07:52.611Z,102101.49
2018-04-18T05:10:24.540Z,102095.78
2018-04-18T05:12:56.602Z,102095.53
2018-04-18T05:15:27.541Z,102091.14
2018-04-18T05:18:42.522Z,102090.70
2018-04-18T05:21:14.511Z,102080.72
2018-04-18T05:23:48.250Z,102080.66
2018-04-18T05:26:21.614Z,102080.42
2018-04-18T05:28:52.523Z,102072.91
2018-04-18T05:31:24.288Z,102072.73
2018-04-18T05:33:56.266Z,102073.08
2018-04-18T05:36:30.241Z,102071.47
2018-04-18T05:40:37.634Z,102061.16
2018-04-18T05:43:10.351Z,102058.14
2018-04-18T05:45:43.271Z,102065.67
2018-04-18T05:48:15.450Z,102066.92
2018-04-18T05:50:48.817Z,102070.08
2018-04-18T05:53:21.259Z,102069.81
2018-04-18T05:55:54.377Z,102063.20
2018-04-18T05:58:27.586Z,102061.95
2018-04-18T06:00:58.493Z,102058.16
2018-04-18T06:03:30.947Z,102056.23
2018-04-18T06:06:03.277Z,102057.05
2018-04-18T06:08:37.098Z,102052.00
2018-04-18T06:13:59.253Z,102053.64
2018-04-18T06:16:31.265Z,102058.08
2018-04-18T06:19:03.514Z,102050.52
2018-04-18T06:23:19.297Z,102046.98
2018-04-18T06:25:51.598Z,102049.03
2018-04-18T06:28:23.130Z,102046.12
2018-04-18T06:30:56.870Z,102047.39
2018-04-18T06:33:30.274Z,102053.73
2018-04-18T06:36:03.289Z,102050.67
2018-04-18T06:38:35.531Z,102046.39
2018-04-18T06:41:09.355Z,102041.95
2018-04-18T06:43:42.496Z,102036.97
2018-04-18T06:46:14.445Z,102032.22
2018-04-18T06:48:46.261Z,102034.94
2018-04-18T06:51:19.558Z,102039.14
2018-04-18T06:53:51.886Z,102031.35
2018-04-18T06:58:53.502Z,102029.16
2018-04-18T07:01:25.603Z,102035.00
2018-04-18T07:05:04.615Z,102033.98
2018-04-18T07:07:35.523Z,102025.60
2018-04-18T07:10:07.653Z,102032.44
2018-04-18T07:12:39.547Z,102032.86
2018-04-18T07:15:13.266Z,102022.31
2018-04-18T07:17:46.305Z,102020.02
2018-04-18T07:20:18.640Z,102013.03
2018-04-18T07:24:36.687Z,102018.34
2018-04-18T07:27:09.730Z,102009.25
2018-04-18T07:29:40.518Z,102010.73
2018-04-18T07:32:12.696Z,102012.81
2018-04-18T07:34:43.663Z,102006.70
2018-04-18T07:37:14.595Z,102007.14
2018-04-18T07:39:46.522Z,102002.42
2018-04-18T07:42:19.541Z,102009.39
2018-04-18T07:45:29.264Z,102007.41
2018-04-18T07:48:02.595Z,102005.05
2018-04-18T07:50:35.116Z,102007.33
2018-04-18T07:53:08.633Z,102003.83
2018-04-18T07:55:40.545Z,102000.97
2018-04-18T07:58:12.573Z,101997.16
2018-04-18T08:00:44.557Z,101998.84
2018-04-18T08:03:17.648Z,101991.38
2018-04-18T08:08:00.272Z,101997.81
2018-04-18T08:10:33.557Z,101989.04
2018-04-18T08:13:05.546Z,101985.37
2018-04-18T08:15:38.037Z,101983.63
2018-04-18T08:18:11.615Z,101991.89
2018-04-18T08:20:43.796Z,101985.91
2018-04-18T08:23:16.667Z,101992.89
2018-04-18T08:25:50.082Z,101988.58
2018-04-18T08:28:23.257Z,101982.66
2018-04-18T08:30:56.263Z,101984.31
2018-04-18T08:33:29.526Z,101983.47
2018-04-18T08:36:02.474Z,101972.41
2018-04-18T08:38:36.337Z,101970.03
2018-04-18T08:41:10.066Z,101972.75
2018-04-18T08:43:43.493Z,101976.92
2018-04-18T08:46:16.547Z,101971.28
2018-04-18T08:48:49.967Z,101969.70
2018-04-18T08:51:23.056Z,101968.30
2018-04-18T08:53:56.259Z,101963.45
2018-04-18T08:56:29.598Z,101960.81
2018-04-18T08:59:02.297Z,101958.07
2018-04-18T09:01:36.078Z,101959.66
2018-04-18T09:04:09.298Z,101958.13
2018-04-18T09:06:42.282Z,101955.73
2018-04-18T09:09:15.580Z,101952.94
2018-04-18T09:11:49.237Z,101945.92
2018-04-18T09:16:42.055Z,101934.91
2018-04-18T09:19:15.265Z,101930.84
2018-04-18T09:21:48.258Z,101929.63
2018-04-18T09:24:22.369Z,101923.31
2018-04-18T09:26:55.287Z,101923.35
2018-04-18T09:29:28.550Z,101917.03
2018-04-18T09:32:02.101Z,101907.25
2018-04-18T09:34:35.272Z,101899.62
2018-04-18T09:37:08.634Z,101898.44
2018-04-18T09:39:40.542Z,101898.84
2018-04-18T09:42:13.818Z,101900.44
2018-04-18T09:44:48.517Z,101896.50
2018-04-18T09:47:22.282Z,101892.41
2018-04-18T09:49:56.640Z,101891.16
2018-04-18T09:52:30.555Z,101899.13
2018-04-18T09:55:04.291Z,101900.41
2018-04-18T09:57:36.396Z,101902.38
2018-04-18T10:00:10.308Z,101895.84
2018-04-18T10:02:44.027Z,101890.89
2018-04-18T10:05:16.610Z,101890.74
2018-04-18T10:07:49.786Z,101889.01
2018-04-18T10:11:11.165Z,101883.84
2018-04-18T10:13:44.680Z,101884.34
2018-04-18T10:16:16.553Z,101881.30
2018-04-18T10:18:49.986Z,101880.59
2018-04-18T10:21:23.301Z,101881.66
2018-04-18T10:23:56.356Z,101882.22
2018-04-18T10:26:29.567Z,101881.11
2018-04-18T10:29:02.567Z,101884.34
2018-04-18T10:31:35.567Z,101872.52
2018-04-18T10:34:09.131Z,101870.83
2018-04-18T10:36:42.295Z,101860.83
2018-04-18T10:39:15.638Z,101859.14
2018-04-18T10:41:49.636Z,101861.88
2018-04-18T10:44:22.787Z,101865.42
2018-04-18T10:46:54.630Z,101859.63
2018-04-18T10:49:26.597Z,101854.40
2018-04-18T10:54:09.663Z,101856.29
2018-04-18T10:56:42.729Z,101861.05
2018-04-18T10:59:14.662Z,101853.36
2018-04-18T11:01:46.650Z,101850.73
2018-04-18T11:04:19.532Z,101852.30
2018-04-18T11:06:53.560Z,101846.85
2018-04-18T11:09:27.601Z,101826.45
2018-04-18T11:12:01.585Z,101830.25
2018-04-18T11:17:02.625Z,101841.97
2018-04-18T11:19:34.621Z,101839.80
2018-04-18T11:22:06.628Z,101847.41
2018-04-18T11:24:38.547Z,101843.20
2018-04-18T11:27:11.616Z,101848.00
2018-04-18T11:29:45.314Z,101837.11
2018-04-18T11:32:18.326Z,101827.97
2018-04-18T11:34:51.546Z,101825.02
2018-04-18T11:37:24.545Z,101827.22
2018-04-18T11:39:58.552Z,101822.11
2018-04-18T11:42:32.544Z,101818.92
2018-04-18T11:45:06.284Z,101810.59
2018-04-18T11:47:39.646Z,101822.88
2018-04-18T11:50:11.938Z,101825.02
2018-04-18T11:52:44.076Z,101818.83
2018-04-18T11:55:18.123Z,101822.45
2018-04-18T11:57:51.625Z,101825.17
2018-04-18T12:00:24.599Z,101822.89
2018-04-18T12:02:57.630Z,101817.34
2018-04-18T12:05:29.470Z,101823.27
2018-04-18T12:08:03.271Z,101820.14
2018-04-18T12:10:36.547Z,101815.24
2018-04-18T12:13:10.232Z,101814.39
2018-04-18T12:18:34.558Z,101804.05
2018-04-18T12:21:07.068Z,101802.63
2018-04-18T12:23:40.609Z,101799.97
2018-04-18T12:26:14.373Z,101795.52
2018-04-18T12:28:47.650Z,101792.36
2018-04-18T12:31:19.578Z,101785.46
2018-04-18T12:33:52.633Z,101790.75
2018-04-18T12:36:25.091Z,101792.10
2018-04-18T12:38:58.621Z,101789.30
2018-04-18T12:41:32.524Z,101792.48
2018-04-18T12:44:06.289Z,101799.42
2018-04-18T12:46:39.684Z,101788.12
2018-04-18T12:49:11.703Z,101780.53
2018-04-18T12:51:45.678Z,101776.15
2018-04-18T12:54:17.701Z,101783.69
2018-04-18T12:56:50.052Z,101786.09
2018-04-18T12:59:23.680Z,101805.08
2018-04-18T13:01:57.082Z,101793.05
2018-04-18T13:04:30.685Z,101793.15
2018-04-18T13:07:03.082Z,101793.37
2018-04-18T13:09:36.561Z,101789.81
2018-04-18T13:12:10.552Z,101793.50
2018-04-18T13:14:43.651Z,101785.17
2018-04-18T13:17:17.648Z,101782.03
2018-04-18T13:19:49.654Z,101784.21
2018-04-18T13:22:23.348Z,101793.98
2018-04-18T13:24:56.926Z,101800.20
2018-04-18T13:27:29.563Z,101802.11
2018-04-18T13:30:05.064Z,101806.64
2018-04-18T13:32:39.556Z,101798.95
2018-04-18T13:35:13.614Z,101802.72
2018-04-18T13:37:46.666Z,101820.80
2018-04-18T13:40:19.724Z,101826.45
2018-04-18T13:42:52.547Z,101822.98
2018-04-18T13:45:25.674Z,101823.63
2018-04-18T13:47:59.708Z,101820.69
2018-04-18T13:50:32.582Z,101817.44
2018-04-18T13:53:06.688Z,101824.02
2018-04-18T13:55:39.585Z,101815.23
2018-04-18T13:58:13.327Z,101811.69
2018-04-18T14:00:46.656Z,101801.84
2018-04-18T14:03:20.298Z,101804.51
2018-04-18T14:05:53.785Z,101803.19
2018-04-18T14:08:26.521Z,101806.62
2018-04-18T14:10:59.663Z,101797.97
2018-04-18T14:13:33.634Z,101798.03
2018-04-18T14:16:06.105Z,101795.03
2018-04-18T14:18:39.412Z,101792.59
2018-04-18T14:21:13.760Z,101796.12
2018-04-18T14:23:45.422Z,101797.67
2018-04-18T14:26:18.661Z,101786.55
2018-04-18T14:28:51.727Z,101788.78
2018-04-18T14:31:23.541Z,101792.14
2018-04-18T14:33:56.548Z,101809.84
2018-04-18T14:36:29.751Z,101816.68
2018-04-18T14:39:01.988Z,101811.36
2018-04-18T14:41:35.545Z,101808.17
2018-04-18T14:44:08.565Z,101810.25
2018-04-18T14:46:41.539Z,101815.09
2018-04-18T14:49:14.518Z,101810.70
2018-04-18T14:51:47.523Z,101804.77
2018-04-18T14:54:21.301Z,101806.59
2018-04-18T14:56:54.633Z,101805.83
2018-04-18T14:59:26.238Z,101806.35
2018-04-18T15:01:59.266Z,101810.22
2018-04-18T15:04:32.288Z,101810.45
2018-04-18T15:07:05.265Z,101811.72
2018-04-18T15:09:38.241Z,101816.56
2018-04-18T15:12:11.732Z,101819.75
2018-04-18T15:14:45.229Z,101820.28
2018-04-18T15:17:18.312Z,101824.09
2018-04-18T15:19:51.630Z,101830.56
2018-04-18T15:22:26.451Z,101829.16
2018-04-18T15:24:59.561Z,101823.53
2018-04-18T15:27:32.615Z,101822.84
2018-04-18T15:30:04.534Z,101815.73
2018-04-18T15:32:37.928Z,101802.43
2018-04-18T15:35:11.526Z,101801.27
2018-04-18T15:37:44.611Z,101805.31
2018-04-18T15:40:17.620Z,101806.91
2018-04-18T15:42:51.124Z,101806.15
2018-04-18T15:45:23.838Z,101813.14
2018-04-18T15:47:57.498Z,101812.25
2018-04-18T15:50:30.037Z,101819.10
2018-04-18T15:53:03.525Z,101809.33
2018-04-18T15:58:26.263Z,101818.41
2018-04-18T16:01:00.000Z,101817.70
2018-04-18T16:03:33.282Z,101813.42
2018-04-18T16:06:06.262Z,101802.55
2018-04-18T16:08:38.614Z,101802.80
2018-04-18T16:15:45.541Z,101800.02
2018-04-18T16:18:17.658Z,101812.78
2018-04-18T16:20:49.538Z,101810.64
2018-04-18T16:23:21.514Z,101811.39
2018-04-18T16:25:53.549Z,101806.90
2018-04-18T16:28:25.619Z,101812.53
2018-04-18T16:30:56.392Z,101815.09
2018-04-18T16:33:30.274Z,101812.31
2018-04-18T16:36:02.515Z,101817.95
2018-04-18T16:42:18.965Z,101816.37
2018-04-18T16:44:51.660Z,101810.06
2018-04-18T16:47:23.545Z,101803.46
2018-04-18T16:49:55.296Z,101809.45
2018-04-18T16:52:27.590Z,101812.95
2018-04-18T16:55:00.427Z,101815.69
2018-04-18T16:57:33.505Z,101813.83
2018-04-18T17:00:06.521Z,101812.64
2018-04-18T17:02:40.323Z,101810.95
2018-04-18T17:05:13.268Z,101808.06
2018-04-18T17:07:46.040Z,101803.78
2018-04-18T17:11:32.534Z,101810.55
2018-04-18T17:14:05.640Z,101811.09
2018-04-18T17:16:37.535Z,101811.08
2018-04-18T17:19:11.617Z,101818.33
2018-04-18T17:21:44.605Z,101810.61
2018-04-18T17:24:17.611Z,101810.45
2018-04-18T17:28:46.641Z,101812.41
2018-04-18T17:31:19.496Z,101818.59
2018-04-18T17:33:53.282Z,101812.29
2018-04-18T17:36:26.307Z,101810.08
2018-04-18T17:38:59.304Z,101811.27
2018-04-18T17:41:33.301Z,101820.73
2018-04-18T17:44:05.693Z,101824.29
2018-04-18T17:46:38.844Z,101839.41
2018-04-18T17:49:10.508Z,101849.42
2018-04-18T17:51:43.479Z,101851.45
2018-04-18T17:54:16.477Z,101844.16
2018-04-18T17:56:49.479Z,101845.84
2018-04-18T17:59:22.472Z,101855.81
2018-04-18T18:01:55.578Z,101852.21
2018-04-18T18:04:28.584Z,101846.16
2018-04-18T18:07:01.603Z,101835.98
2018-04-18T18:09:34.553Z,101842.27
2018-04-18T18:12:07.592Z,101846.41
2018-04-18T18:14:40.486Z,101843.52
2018-04-18T18:17:13.557Z,101845.68
2018-04-18T18:19:46.560Z,101827.66
2018-04-18T18:22:19.269Z,101816.36
2018-04-18T18:24:52.311Z,101816.70
2018-04-18T18:27:25.499Z,101825.22
2018-04-18T18:29:58.483Z,101818.02
2018-04-18T18:32:31.499Z,101819.01
2018-04-18T18:35:04.993Z,101819.08
2018-04-18T18:37:39.588Z,101816.93
2018-04-18T18:40:13.487Z,101806.59
2018-04-18T18:42:46.520Z,101800.77
2018-04-18T18:45:20.489Z,101791.20
2018-04-18T18:47:54.190Z,101780.66
2018-04-18T18:50:27.549Z,101767.20
2018-04-18T18:53:00.552Z,101761.75
2018-04-18T18:55:32.480Z,101765.05
2018-04-18T18:58:06.272Z,101761.84
2018-04-18T19:00:39.488Z,101757.49
2018-04-18T19:03:12.971Z,101760.06
2018-04-18T19:05:46.263Z,101747.27
2018-04-18T19:08:19.626Z,101741.73
2018-04-18T19:10:51.548Z,101737.44
2018-04-18T19:13:25.125Z,101727.03
2018-04-18T19:15:58.624Z,101734.00
2018-04-18T19:18:31.675Z,101734.71
2018-04-18T19:21:03.726Z,101739.76
2018-04-18T19:23:36.747Z,101736.03
2018-04-18T19:26:08.377Z,101737.84
2018-04-18T19:28:41.523Z,101730.00
2018-04-18T19:31:15.055Z,101727.34
2018-04-18T19:33:48.541Z,101726.19
2018-04-18T19:36:21.623Z,101727.69
2018-04-18T19:38:55.281Z,101729.98
2018-04-18T19:41:28.281Z,101716.39
2018-04-18T19:44:01.542Z,101718.38
2018-04-18T19:46:34.647Z,101711.34
2018-04-18T19:49:07.629Z,101710.20
2018-04-18T19:51:40.655Z,101710.63
2018-04-18T19:54:12.459Z,101709.02
2018-04-18T19:56:46.563Z,101706.84
2018-04-18T19:59:20.338Z,101697.40
2018-04-18T20:01:53.680Z,101699.69
2018-04-18T20:04:27.805Z,101693.66
2018-04-18T20:07:01.421Z,101698.30
2018-04-18T20:09:34.640Z,101693.47
2018-04-18T20:12:06.584Z,101693.05
2018-04-18T20:14:39.642Z,101690.77
2018-04-18T20:17:11.545Z,101678.52
2018-04-18T20:19:45.436Z,101673.92
2018-04-18T20:22:18.633Z,101677.14
2018-04-18T20:24:52.570Z,101678.10
2018-04-18T20:27:26.577Z,101667.52
2018-04-18T20:29:59.615Z,101671.08
2018-04-18T20:32:32.563Z,101663.25
2018-04-18T20:35:06.253Z,101663.58
2018-04-18T20:37:39.327Z,101657.89
2018-04-18T20:40:12.462Z,101657.85
2018-04-18T20:43:01.737Z,101657.47
2018-04-18T20:45:34.660Z,101648.36
2018-04-18T20:48:06.542Z,101657.70
2018-04-18T20:50:40.293Z,101654.61
2018-04-18T20:53:13.511Z,101659.26
2018-04-18T20:55:46.310Z,101650.30
2018-04-18T20:58:19.360Z,101651.82
2018-04-18T21:00:53.273Z,101654.98
2018-04-18T21:03:26.646Z,101647.06
2018-04-18T21:05:59.496Z,101635.58
2018-04-18T21:08:32.909Z,101643.14
2018-04-18T21:11:05.529Z,101637.02
2018-04-18T21:13:38.616Z,101635.92
2018-04-18T21:16:10.104Z,101631.55
2018-04-18T21:18:43.269Z,101625.67
2018-04-18T21:21:17.715Z,101620.59
2018-04-18T21:23:49.996Z,101624.47
2018-04-18T21:27:31.610Z,101619.03
2018-04-18T21:30:03.547Z,101617.32
2018-04-18T21:32:36.598Z,101609.33
2018-04-18T21:35:08.379Z,101608.85
2018-04-18T21:37:41.595Z,101610.08
2018-04-18T21:40:13.515Z,101611.51
2018-04-18T21:42:46.973Z,101608.53
2018-04-18T21:45:20.513Z,101612.07
2018-04-18T21:47:53.587Z,101610.69
2018-04-18T21:50:25.521Z,101601.95
2018-04-18T21:52:58.514Z,101604.14
2018-04-18T21:55:31.527Z,101598.75
2018-04-18T21:58:04.650Z,101600.50
2018-04-18T22:00:36.777Z,101601.02
2018-04-18T22:03:10.455Z,101590.36
2018-04-18T22:05:43.623Z,101586.67
2018-04-18T22:08:15.564Z,101582.83
2018-04-18T22:10:48.543Z,101582.11
2018-04-18T22:13:21.566Z,101584.25
2018-04-18T22:15:54.595Z,101575.89
2018-04-18T22:18:27.878Z,101573.39
2018-04-18T22:21:00.497Z,101573.48
2018-04-18T22:23:34.332Z,101577.41
2018-04-18T22:26:06.538Z,101570.59
2018-04-18T22:28:38.516Z,101567.98
2018-04-18T22:33:28.513Z,101562.77
2018-04-18T22:36:02.529Z,101557.60
2018-04-18T22:39:45.510Z,101559.09
2018-04-18T22:42:17.293Z,101560.99
2018-04-18T22:44:49.512Z,101553.16
2018-04-18T22:47:20.565Z,101547.00
2018-04-18T22:49:52.646Z,101557.72
2018-04-18T22:52:24.523Z,101552.69
2018-04-18T22:54:56.623Z,101550.52
2018-04-18T22:57:27.565Z,101554.30
2018-04-18T22:59:59.645Z,101540.58
2018-04-18T23:02:31.640Z,101536.34
2018-04-18T23:05:02.563Z,101541.21
2018-04-18T23:09:47.595Z,101536.28
2018-04-18T23:12:19.625Z,101544.39
2018-04-18T23:14:50.562Z,101538.95
2018-04-18T23:17:22.619Z,101533.94
2018-04-18T23:22:18.666Z,101526.71
2018-04-18T23:24:49.553Z,101529.18
2018-04-18T23:27:21.633Z,101529.02
2018-04-18T23:32:53.285Z,101523.90
2018-04-18T23:35:25.769Z,101520.77
2018-04-18T23:37:56.569Z,101513.25
2018-04-18T23:40:29.716Z,101522.27
2018-04-18T23:43:02.556Z,101511.37
2018-04-18T23:45:35.682Z,101510.05
2018-04-18T23:54:11.738Z,101501.99
2018-04-18T23:56:43.580Z,101497.75
2018-04-18T23:59:14.628Z,101487.17
